sensor_id;sensor_type;location;lat;lon;timestamp;P1;durP1;ratioP1;P2;durP2;ratioP2
62610;SDS011;48683;48.084;17.272;2024-03-23T00:54:35;26.02;;;18.40;;
62610;SDS011;48683;48.084;17.272;2024-03-23T00:57:00;26.33;;;19.07;;
62610;SDS011;48683;48.084;17.272;2024-03-23T00:59:25;28.60;;;18.60;;
62610;SDS011;48683;48.084;17.272;2024-03-23T01:01:53;25.80;;;18.10;;
62610;SDS011;48683;48.084;17.272;2024-03-23T01:04:19;32.20;;;21.10;;
62610;SDS011;48683;48.084;17.272;2024-03-23T01:06:44;26.57;;;19.67;;
62610;SDS011;48683;48.084;17.272;2024-03-23T01:09:09;32.90;;;20.90;;
62610;SDS011;48683;48.084;17.272;2024-03-23T01:11:35;26.98;;;19.48;;
62610;SDS011;48683;48.084;17.272;2024-03-23T01:14:01;33.53;;;18.75;;
62610;SDS011;48683;48.084;17.272;2024-03-23T01:16:26;25.10;;;18.43;;
62610;SDS011;48683;48.084;17.272;2024-03-23T01:18:51;30.80;;;20.77;;
62610;SDS011;48683;48.084;17.272;2024-03-23T01:21:16;31.20;;;20.40;;
62610;SDS011;48683;48.084;17.272;2024-03-23T01:23:42;25.08;;;18.60;;
62610;SDS011;48683;48.084;17.272;2024-03-23T01:26:07;29.42;;;19.77;;
62610;SDS011;48683;48.084;17.272;2024-03-23T01:28:32;27.93;;;20.87;;
62610;SDS011;48683;48.084;17.272;2024-03-23T01:30:58;28.83;;;20.27;;
62610;SDS011;48683;48.084;17.272;2024-03-23T01:33:23;29.10;;;19.60;;
62610;SDS011;48683;48.084;17.272;2024-03-23T01:35:48;43.67;;;29.77;;
62610;SDS011;48683;48.084;17.272;2024-03-23T01:38:13;42.20;;;27.87;;
62610;SDS011;48683;48.084;17.272;2024-03-23T01:40:39;42.07;;;29.83;;
62610;SDS011;48683;48.084;17.272;2024-03-23T01:43:04;39.20;;;26.87;;
62610;SDS011;48683;48.084;17.272;2024-03-23T01:45:30;39.63;;;26.92;;
62610;SDS011;48683;48.084;17.272;2024-03-23T01:47:55;49.03;;;30.35;;
62610;SDS011;48683;48.084;17.272;2024-03-23T01:50:20;40.40;;;28.20;;
62610;SDS011;48683;48.084;17.272;2024-03-23T01:52:46;45.45;;;29.98;;
62610;SDS011;48683;48.084;17.272;2024-03-23T01:55:12;40.90;;;27.00;;
62610;SDS011;48683;48.084;17.272;2024-03-23T01:57:37;43.90;;;30.33;;
62610;SDS011;48683;48.084;17.272;2024-03-23T02:00:02;39.47;;;25.40;;
62610;SDS011;48683;48.084;17.272;2024-03-23T02:02:28;42.13;;;27.33;;
62610;SDS011;48683;48.084;17.272;2024-03-23T02:04:53;37.13;;;25.37;;
62610;SDS011;48683;48.084;17.272;2024-03-23T02:07:18;43.37;;;28.60;;
62610;SDS011;48683;48.084;17.272;2024-03-23T02:09:43;41.97;;;27.37;;
62610;SDS011;48683;48.084;17.272;2024-03-23T02:12:08;39.90;;;27.20;;
62610;SDS011;48683;48.084;17.272;2024-03-23T02:14:34;38.77;;;26.90;;
62610;SDS011;48683;48.084;17.272;2024-03-23T02:16:59;39.33;;;26.63;;
62610;SDS011;48683;48.084;17.272;2024-03-23T02:19:24;35.07;;;24.10;;
62610;SDS011;48683;48.084;17.272;2024-03-23T02:21:49;36.47;;;25.40;;
62610;SDS011;48683;48.084;17.272;2024-03-23T02:24:14;34.83;;;25.07;;
62610;SDS011;48683;48.084;17.272;2024-03-23T02:26:39;36.00;;;24.17;;
62610;SDS011;48683;48.084;17.272;2024-03-23T02:29:05;39.70;;;27.57;;
62610;SDS011;48683;48.084;17.272;2024-03-23T02:31:30;37.10;;;24.10;;
62610;SDS011;48683;48.084;17.272;2024-03-23T02:33:55;37.15;;;24.65;;
62610;SDS011;48683;48.084;17.272;2024-03-23T02:36:20;32.30;;;22.77;;
62610;SDS011;48683;48.084;17.272;2024-03-23T02:38:46;35.90;;;22.98;;
62610;SDS011;48683;48.084;17.272;2024-03-23T02:41:11;37.22;;;26.58;;
62610;SDS011;48683;48.084;17.272;2024-03-23T02:43:37;36.50;;;24.85;;
62610;SDS011;48683;48.084;17.272;2024-03-23T02:46:02;32.20;;;21.90;;
62610;SDS011;48683;48.084;17.272;2024-03-23T02:48:29;30.77;;;22.70;;
62610;SDS011;48683;48.084;17.272;2024-03-23T02:50:54;41.47;;;26.75;;
62610;SDS011;48683;48.084;17.272;2024-03-23T02:53:19;37.30;;;25.23;;
62610;SDS011;48683;48.084;17.272;2024-03-23T02:55:44;33.20;;;22.37;;
62610;SDS011;48683;48.084;17.272;2024-03-23T02:58:10;34.17;;;23.20;;
62610;SDS011;48683;48.084;17.272;2024-03-23T03:00:35;31.47;;;22.63;;
62610;SDS011;48683;48.084;17.272;2024-03-23T03:03:00;29.73;;;22.90;;
62610;SDS011;48683;48.084;17.272;2024-03-23T03:05:25;32.17;;;22.90;;
62610;SDS011;48683;48.084;17.272;2024-03-23T03:07:50;33.67;;;22.73;;
62610;SDS011;48683;48.084;17.272;2024-03-23T03:10:15;34.00;;;23.73;;
62610;SDS011;48683;48.084;17.272;2024-03-23T03:12:41;31.80;;;22.20;;
62610;SDS011;48683;48.084;17.272;2024-03-23T03:15:07;31.00;;;20.25;;
62610;SDS011;48683;48.084;17.272;2024-03-23T03:19:59;27.53;;;19.83;;
62610;SDS011;48683;48.084;17.272;2024-03-23T03:22:24;29.60;;;19.60;;
62610;SDS011;48683;48.084;17.272;2024-03-23T03:24:50;26.52;;;19.42;;
62610;SDS011;48683;48.084;17.272;2024-03-23T03:27:15;29.33;;;19.65;;
62610;SDS011;48683;48.084;17.272;2024-03-23T03:29:40;30.30;;;19.67;;
62610;SDS011;48683;48.084;17.272;2024-03-23T03:32:05;26.70;;;19.87;;
62610;SDS011;48683;48.084;17.272;2024-03-23T03:34:31;28.98;;;20.15;;
62610;SDS011;48683;48.084;17.272;2024-03-23T03:36:56;28.30;;;19.35;;
62610;SDS011;48683;48.084;17.272;2024-03-23T03:39:22;32.20;;;19.83;;
62610;SDS011;48683;48.084;17.272;2024-03-23T03:41:47;29.05;;;18.88;;
62610;SDS011;48683;48.084;17.272;2024-03-23T03:44:13;29.00;;;19.45;;
62610;SDS011;48683;48.084;17.272;2024-03-23T03:46:38;27.73;;;19.10;;
62610;SDS011;48683;48.084;17.272;2024-03-23T03:49:03;24.80;;;17.67;;
62610;SDS011;48683;48.084;17.272;2024-03-23T03:51:28;23.93;;;17.63;;
62610;SDS011;48683;48.084;17.272;2024-03-23T03:53:53;26.70;;;18.30;;
62610;SDS011;48683;48.084;17.272;2024-03-23T03:56:18;24.70;;;17.83;;
62610;SDS011;48683;48.084;17.272;2024-03-23T03:58:44;30.47;;;19.40;;
62610;SDS011;48683;48.084;17.272;2024-03-23T04:01:09;27.30;;;17.40;;
62610;SDS011;48683;48.084;17.272;2024-03-23T04:03:34;25.63;;;17.50;;
62610;SDS011;48683;48.084;17.272;2024-03-23T04:05:59;26.77;;;18.83;;
62610;SDS011;48683;48.084;17.272;2024-03-23T04:08:24;33.23;;;19.80;;
62610;SDS011;48683;48.084;17.272;2024-03-23T04:10:50;28.03;;;19.53;;
62610;SDS011;48683;48.084;17.272;2024-03-23T04:13:15;24.83;;;18.03;;
62610;SDS011;48683;48.084;17.272;2024-03-23T04:15:41;27.38;;;17.45;;
62610;SDS011;48683;48.084;17.272;2024-03-23T04:18:06;25.50;;;17.63;;
62610;SDS011;48683;48.084;17.272;2024-03-23T04:20:32;24.33;;;17.90;;
62610;SDS011;48683;48.084;17.272;2024-03-23T04:22:57;27.92;;;18.13;;
62610;SDS011;48683;48.084;17.272;2024-03-23T04:25:22;24.63;;;16.02;;
62610;SDS011;48683;48.084;17.272;2024-03-23T04:27:48;24.10;;;16.20;;
62610;SDS011;48683;48.084;17.272;2024-03-23T04:30:13;27.13;;;18.83;;
62610;SDS011;48683;48.084;17.272;2024-03-23T04:32:39;25.27;;;17.75;;
62610;SDS011;48683;48.084;17.272;2024-03-23T04:35:04;23.52;;;16.90;;
62610;SDS011;48683;48.084;17.272;2024-03-23T04:37:34;24.65;;;16.83;;
62610;SDS011;48683;48.084;17.272;2024-03-23T04:40:00;26.63;;;18.02;;
62610;SDS011;48683;48.084;17.272;2024-03-23T04:42:26;25.63;;;17.92;;
62610;SDS011;48683;48.084;17.272;2024-03-23T04:44:51;26.10;;;17.00;;
62610;SDS011;48683;48.084;17.272;2024-03-23T04:47:16;25.93;;;17.97;;
62610;SDS011;48683;48.084;17.272;2024-03-23T04:49:42;24.30;;;18.00;;
62610;SDS011;48683;48.084;17.272;2024-03-23T04:52:07;26.60;;;18.07;;
62610;SDS011;48683;48.084;17.272;2024-03-23T04:54:32;26.27;;;17.97;;
62610;SDS011;48683;48.084;17.272;2024-03-23T04:56:58;27.15;;;18.13;;
62610;SDS011;48683;48.084;17.272;2024-03-23T04:59:23;22.52;;;17.20;;
62610;SDS011;48683;48.084;17.272;2024-03-23T05:01:49;26.63;;;18.37;;
62610;SDS011;48683;48.084;17.272;2024-03-23T05:04:14;25.83;;;18.63;;
62610;SDS011;48683;48.084;17.272;2024-03-23T05:06:39;26.42;;;18.80;;
62610;SDS011;48683;48.084;17.272;2024-03-23T05:09:04;23.50;;;18.43;;
62610;SDS011;48683;48.084;17.272;2024-03-23T05:11:36;27.83;;;18.65;;
62610;SDS011;48683;48.084;17.272;2024-03-23T05:14:01;25.50;;;18.67;;
62610;SDS011;48683;48.084;17.272;2024-03-23T05:16:28;26.58;;;19.10;;
62610;SDS011;48683;48.084;17.272;2024-03-23T05:18:53;27.80;;;19.98;;
62610;SDS011;48683;48.084;17.272;2024-03-23T05:21:18;28.27;;;18.23;;
62610;SDS011;48683;48.084;17.272;2024-03-23T05:23:43;26.00;;;19.50;;
62610;SDS011;48683;48.084;17.272;2024-03-23T05:26:09;29.73;;;21.08;;
62610;SDS011;48683;48.084;17.272;2024-03-23T05:28:34;28.38;;;19.23;;
62610;SDS011;48683;48.084;17.272;2024-03-23T05:31:00;35.35;;;21.38;;
62610;SDS011;48683;48.084;17.272;2024-03-23T05:33:25;32.90;;;19.57;;
62610;SDS011;48683;48.084;17.272;2024-03-23T05:35:57;27.65;;;19.10;;
62610;SDS011;48683;48.084;17.272;2024-03-23T05:38:22;32.33;;;22.00;;
62610;SDS011;48683;48.084;17.272;2024-03-23T05:41:08;31.67;;;21.17;;
62610;SDS011;48683;48.084;17.272;2024-03-23T05:43:33;35.33;;;23.75;;
62610;SDS011;48683;48.084;17.272;2024-03-23T05:45:58;34.50;;;23.27;;
62610;SDS011;48683;48.084;17.272;2024-03-23T05:48:24;37.63;;;23.33;;
62610;SDS011;48683;48.084;17.272;2024-03-23T05:50:50;33.58;;;21.90;;
62610;SDS011;48683;48.084;17.272;2024-03-23T05:53:16;32.42;;;22.23;;
62610;SDS011;48683;48.084;17.272;2024-03-23T05:55:41;35.38;;;22.92;;
62610;SDS011;48683;48.084;17.272;2024-03-23T05:58:06;34.77;;;22.33;;
62610;SDS011;48683;48.084;17.272;2024-03-23T06:00:31;30.23;;;20.55;;
62610;SDS011;48683;48.084;17.272;2024-03-23T06:02:57;30.00;;;20.47;;
62610;SDS011;48683;48.084;17.272;2024-03-23T06:05:22;31.70;;;21.38;;
62610;SDS011;48683;48.084;17.272;2024-03-23T06:07:48;30.52;;;19.30;;
62610;SDS011;48683;48.084;17.272;2024-03-23T06:10:14;30.08;;;21.02;;
62610;SDS011;48683;48.084;17.272;2024-03-23T06:12:40;27.33;;;20.55;;
62610;SDS011;48683;48.084;17.272;2024-03-23T06:15:05;29.60;;;20.97;;
62610;SDS011;48683;48.084;17.272;2024-03-23T06:17:31;30.95;;;20.73;;
62610;SDS011;48683;48.084;17.272;2024-03-23T06:19:58;27.98;;;19.42;;
62610;SDS011;48683;48.084;17.272;2024-03-23T06:22:23;29.07;;;21.27;;
62610;SDS011;48683;48.084;17.272;2024-03-23T06:24:48;30.63;;;20.30;;
62610;SDS011;48683;48.084;17.272;2024-03-23T06:27:13;29.27;;;19.30;;
62610;SDS011;48683;48.084;17.272;2024-03-23T06:29:39;28.47;;;19.87;;
62610;SDS011;48683;48.084;17.272;2024-03-23T06:32:04;29.53;;;20.20;;
62610;SDS011;48683;48.084;17.272;2024-03-23T06:34:29;29.43;;;20.43;;
62610;SDS011;48683;48.084;17.272;2024-03-23T06:36:55;27.95;;;19.13;;
62610;SDS011;48683;48.084;17.272;2024-03-23T06:39:20;30.70;;;20.43;;
62610;SDS011;48683;48.084;17.272;2024-03-23T06:41:51;29.50;;;19.57;;
62610;SDS011;48683;48.084;17.272;2024-03-23T06:44:16;27.55;;;19.80;;
62610;SDS011;48683;48.084;17.272;2024-03-23T06:46:42;26.90;;;19.77;;
62610;SDS011;48683;48.084;17.272;2024-03-23T06:49:07;28.43;;;18.73;;
62610;SDS011;48683;48.084;17.272;2024-03-23T06:51:33;25.20;;;18.80;;
62610;SDS011;48683;48.084;17.272;2024-03-23T06:53:58;24.83;;;18.50;;
62610;SDS011;48683;48.084;17.272;2024-03-23T06:56:23;25.17;;;19.37;;
62610;SDS011;48683;48.084;17.272;2024-03-23T06:58:48;25.43;;;17.87;;
62610;SDS011;48683;48.084;17.272;2024-03-23T07:01:13;28.93;;;18.73;;
62610;SDS011;48683;48.084;17.272;2024-03-23T07:03:39;28.05;;;19.23;;
62610;SDS011;48683;48.084;17.272;2024-03-23T07:06:04;24.83;;;18.97;;
62610;SDS011;48683;48.084;17.272;2024-03-23T07:08:29;21.83;;;17.50;;
62610;SDS011;48683;48.084;17.272;2024-03-23T07:10:54;25.10;;;17.87;;
62610;SDS011;48683;48.084;17.272;2024-03-23T07:13:19;24.53;;;18.90;;
62610;SDS011;48683;48.084;17.272;2024-03-23T07:15:50;23.20;;;17.67;;
62610;SDS011;48683;48.084;17.272;2024-03-23T07:18:16;23.35;;;17.83;;
62610;SDS011;48683;48.084;17.272;2024-03-23T07:20:41;23.27;;;16.47;;
62610;SDS011;48683;48.084;17.272;2024-03-23T07:23:06;22.57;;;16.00;;
62610;SDS011;48683;48.084;17.272;2024-03-23T07:25:32;23.67;;;16.92;;
62610;SDS011;48683;48.084;17.272;2024-03-23T07:27:58;21.47;;;15.93;;
62610;SDS011;48683;48.084;17.272;2024-03-23T07:30:23;21.77;;;16.30;;
62610;SDS011;48683;48.084;17.272;2024-03-23T07:32:48;23.67;;;16.20;;
62610;SDS011;48683;48.084;17.272;2024-03-23T07:35:13;24.10;;;16.57;;
62610;SDS011;48683;48.084;17.272;2024-03-23T07:37:38;21.70;;;15.27;;
62610;SDS011;48683;48.084;17.272;2024-03-23T07:40:04;21.73;;;16.80;;
62610;SDS011;48683;48.084;17.272;2024-03-23T07:42:29;19.15;;;14.75;;
62610;SDS011;48683;48.084;17.272;2024-03-23T07:44:55;19.67;;;15.43;;
62610;SDS011;48683;48.084;17.272;2024-03-23T07:47:21;20.80;;;15.23;;
62610;SDS011;48683;48.084;17.272;2024-03-23T07:49:47;20.77;;;15.27;;
62610;SDS011;48683;48.084;17.272;2024-03-23T07:52:12;17.40;;;14.68;;
62610;SDS011;48683;48.084;17.272;2024-03-23T07:54:37;19.97;;;14.20;;
62610;SDS011;48683;48.084;17.272;2024-03-23T07:57:02;20.38;;;14.93;;
62610;SDS011;48683;48.084;17.272;2024-03-23T07:59:28;16.10;;;13.20;;
62610;SDS011;48683;48.084;17.272;2024-03-23T08:01:56;18.33;;;14.63;;
62610;SDS011;48683;48.084;17.272;2024-03-23T08:04:21;16.13;;;13.63;;
62610;SDS011;48683;48.084;17.272;2024-03-23T08:06:46;16.93;;;13.10;;
62610;SDS011;48683;48.084;17.272;2024-03-23T08:09:11;18.17;;;13.43;;
62610;SDS011;48683;48.084;17.272;2024-03-23T08:11:36;16.47;;;12.07;;
62610;SDS011;48683;48.084;17.272;2024-03-23T08:14:04;16.75;;;13.05;;
62610;SDS011;48683;48.084;17.272;2024-03-23T08:16:29;16.90;;;13.77;;
62610;SDS011;48683;48.084;17.272;2024-03-23T08:18:54;14.87;;;12.40;;
62610;SDS011;48683;48.084;17.272;2024-03-23T08:21:22;19.73;;;13.18;;
62610;SDS011;48683;48.084;17.272;2024-03-23T08:23:48;15.97;;;13.50;;
62610;SDS011;48683;48.084;17.272;2024-03-23T08:26:15;20.70;;;14.30;;
62610;SDS011;48683;48.084;17.272;2024-03-23T08:28:40;19.05;;;13.73;;
62610;SDS011;48683;48.084;17.272;2024-03-23T08:31:07;18.25;;;13.82;;
62610;SDS011;48683;48.084;17.272;2024-03-23T08:33:32;19.60;;;13.27;;
62610;SDS011;48683;48.084;17.272;2024-03-23T08:36:02;15.82;;;13.13;;
62610;SDS011;48683;48.084;17.272;2024-03-23T08:38:28;17.48;;;13.60;;
62610;SDS011;48683;48.084;17.272;2024-03-23T08:40:56;17.35;;;13.13;;
62610;SDS011;48683;48.084;17.272;2024-03-23T08:43:22;15.98;;;13.13;;
62610;SDS011;48683;48.084;17.272;2024-03-23T08:45:47;19.27;;;14.10;;
62610;SDS011;48683;48.084;17.272;2024-03-23T08:48:12;18.07;;;13.73;;
62610;SDS011;48683;48.084;17.272;2024-03-23T08:50:37;18.83;;;13.17;;
62610;SDS011;48683;48.084;17.272;2024-03-23T08:53:03;18.97;;;13.07;;
62610;SDS011;48683;48.084;17.272;2024-03-23T08:55:28;17.27;;;12.98;;
62610;SDS011;48683;48.084;17.272;2024-03-23T08:57:53;15.77;;;12.07;;
62610;SDS011;48683;48.084;17.272;2024-03-23T09:00:18;17.77;;;12.73;;
62610;SDS011;48683;48.084;17.272;2024-03-23T09:02:47;14.20;;;12.30;;
62610;SDS011;48683;48.084;17.272;2024-03-23T09:05:12;14.45;;;11.48;;
62610;SDS011;48683;48.084;17.272;2024-03-23T09:07:37;15.95;;;11.60;;
62610;SDS011;48683;48.084;17.272;2024-03-23T09:10:02;13.33;;;11.27;;
62610;SDS011;48683;48.084;17.272;2024-03-23T09:12:27;14.40;;;11.60;;
62610;SDS011;48683;48.084;17.272;2024-03-23T09:14:53;12.43;;;11.07;;
62610;SDS011;48683;48.084;17.272;2024-03-23T09:17:18;13.43;;;10.85;;
62610;SDS011;48683;48.084;17.272;2024-03-23T09:19:44;14.38;;;11.05;;
62610;SDS011;48683;48.084;17.272;2024-03-23T09:22:09;13.45;;;10.88;;
62610;SDS011;48683;48.084;17.272;2024-03-23T09:24:34;13.25;;;11.05;;
62610;SDS011;48683;48.084;17.272;2024-03-23T09:26:59;15.63;;;11.93;;
62610;SDS011;48683;48.084;17.272;2024-03-23T09:29:24;12.90;;;11.53;;
62610;SDS011;48683;48.084;17.272;2024-03-23T09:31:50;14.00;;;10.85;;
62610;SDS011;48683;48.084;17.272;2024-03-23T09:34:15;15.48;;;11.10;;
62610;SDS011;48683;48.084;17.272;2024-03-23T09:36:40;16.05;;;11.88;;
62610;SDS011;48683;48.084;17.272;2024-03-23T09:39:06;15.18;;;11.30;;
62610;SDS011;48683;48.084;17.272;2024-03-23T09:41:31;16.27;;;11.68;;
62610;SDS011;48683;48.084;17.272;2024-03-23T09:43:56;16.30;;;11.93;;
62610;SDS011;48683;48.084;17.272;2024-03-23T09:46:22;29.60;;;14.55;;
62610;SDS011;48683;48.084;17.272;2024-03-23T09:48:48;16.92;;;12.27;;
62610;SDS011;48683;48.084;17.272;2024-03-23T09:51:13;14.30;;;11.52;;
62610;SDS011;48683;48.084;17.272;2024-03-23T09:53:38;15.33;;;12.20;;
62610;SDS011;48683;48.084;17.272;2024-03-23T09:56:04;19.13;;;12.90;;
62610;SDS011;48683;48.084;17.272;2024-03-23T09:58:29;18.15;;;12.63;;
62610;SDS011;48683;48.084;17.272;2024-03-23T10:00:54;16.07;;;12.23;;
62610;SDS011;48683;48.084;17.272;2024-03-23T10:03:19;16.43;;;11.87;;
62610;SDS011;48683;48.084;17.272;2024-03-23T10:05:45;15.87;;;11.57;;
62610;SDS011;48683;48.084;17.272;2024-03-23T10:10:38;15.38;;;12.52;;
62610;SDS011;48683;48.084;17.272;2024-03-23T10:13:04;16.03;;;12.50;;
62610;SDS011;48683;48.084;17.272;2024-03-23T10:15:29;16.60;;;11.90;;
62610;SDS011;48683;48.084;17.272;2024-03-23T10:17:54;14.07;;;11.60;;
62610;SDS011;48683;48.084;17.272;2024-03-23T10:20:23;15.57;;;11.80;;
62610;SDS011;48683;48.084;17.272;2024-03-23T10:22:48;13.77;;;12.10;;
62610;SDS011;48683;48.084;17.272;2024-03-23T10:25:14;13.82;;;11.85;;
62610;SDS011;48683;48.084;17.272;2024-03-23T10:27:40;13.17;;;11.13;;
62610;SDS011;48683;48.084;17.272;2024-03-23T10:30:12;14.40;;;12.00;;
62610;SDS011;48683;48.084;17.272;2024-03-23T10:32:37;13.32;;;11.20;;
62610;SDS011;48683;48.084;17.272;2024-03-23T10:35:16;12.50;;;11.20;;
62610;SDS011;48683;48.084;17.272;2024-03-23T10:37:43;13.88;;;11.07;;
62610;SDS011;48683;48.084;17.272;2024-03-23T10:40:11;12.40;;;11.10;;
62610;SDS011;48683;48.084;17.272;2024-03-23T10:42:37;13.55;;;11.30;;
62610;SDS011;48683;48.084;17.272;2024-03-23T10:45:03;12.77;;;10.37;;
62610;SDS011;48683;48.084;17.272;2024-03-23T10:47:29;15.40;;;10.25;;
62610;SDS011;48683;48.084;17.272;2024-03-23T10:49:54;12.00;;;9.97;;
62610;SDS011;48683;48.084;17.272;2024-03-23T10:52:19;10.93;;;9.73;;
62610;SDS011;48683;48.084;17.272;2024-03-23T10:54:44;13.20;;;9.73;;
62610;SDS011;48683;48.084;17.272;2024-03-23T10:57:13;11.35;;;9.40;;
62610;SDS011;48683;48.084;17.272;2024-03-23T10:59:39;11.50;;;9.38;;
62610;SDS011;48683;48.084;17.272;2024-03-23T11:02:05;12.70;;;9.97;;
62610;SDS011;48683;48.084;17.272;2024-03-23T11:04:34;11.10;;;9.50;;
62610;SDS011;48683;48.084;17.272;2024-03-23T11:06:59;11.32;;;10.15;;
62610;SDS011;48683;48.084;17.272;2024-03-23T11:12:02;16.88;;;10.15;;
62610;SDS011;48683;48.084;17.272;2024-03-23T11:14:42;12.98;;;9.45;;
62610;SDS011;48683;48.084;17.272;2024-03-23T11:17:10;11.73;;;9.10;;
62610;SDS011;48683;48.084;17.272;2024-03-23T11:19:36;10.85;;;8.93;;
62610;SDS011;48683;48.084;17.272;2024-03-23T11:22:01;9.83;;;8.83;;
62610;SDS011;48683;48.084;17.272;2024-03-23T11:24:27;14.37;;;9.93;;
62610;SDS011;48683;48.084;17.272;2024-03-23T11:26:53;11.60;;;9.13;;
62610;SDS011;48683;48.084;17.272;2024-03-23T11:29:18;15.03;;;9.93;;
62610;SDS011;48683;48.084;17.272;2024-03-23T11:31:50;12.37;;;9.23;;
62610;SDS011;48683;48.084;17.272;2024-03-23T11:34:16;11.90;;;9.52;;
62610;SDS011;48683;48.084;17.272;2024-03-23T11:36:41;13.03;;;10.07;;
62610;SDS011;48683;48.084;17.272;2024-03-23T11:39:16;11.97;;;9.60;;
62610;SDS011;48683;48.084;17.272;2024-03-23T11:41:45;11.93;;;9.63;;
62610;SDS011;48683;48.084;17.272;2024-03-23T11:44:29;13.98;;;9.55;;
62610;SDS011;48683;48.084;17.272;2024-03-23T11:46:54;13.15;;;9.85;;
62610;SDS011;48683;48.084;17.272;2024-03-23T11:49:31;11.20;;;9.35;;
62610;SDS011;48683;48.084;17.272;2024-03-23T11:51:57;12.27;;;8.83;;
62610;SDS011;48683;48.084;17.272;2024-03-23T11:57:20;10.43;;;9.40;;
62610;SDS011;48683;48.084;17.272;2024-03-23T11:59:39;13.13;;;9.85;;
62610;SDS011;48683;48.084;17.272;2024-03-23T12:02:12;13.10;;;9.75;;
62610;SDS011;48683;48.084;17.272;2024-03-23T12:04:41;13.95;;;9.80;;
62610;SDS011;48683;48.084;17.272;2024-03-23T12:09:34;11.27;;;9.57;;
62610;SDS011;48683;48.084;17.272;2024-03-23T12:12:05;10.57;;;9.43;;
62610;SDS011;48683;48.084;17.272;2024-03-23T12:14:30;13.63;;;9.88;;
62610;SDS011;48683;48.084;17.272;2024-03-23T12:16:56;11.90;;;9.38;;
62610;SDS011;48683;48.084;17.272;2024-03-23T12:19:31;12.23;;;9.68;;
62610;SDS011;48683;48.084;17.272;2024-03-23T12:21:57;10.37;;;9.27;;
62610;SDS011;48683;48.084;17.272;2024-03-23T12:24:22;13.50;;;8.90;;
62610;SDS011;48683;48.084;17.272;2024-03-23T12:26:47;10.90;;;8.80;;
62610;SDS011;48683;48.084;17.272;2024-03-23T12:29:15;12.25;;;10.02;;
62610;SDS011;48683;48.084;17.272;2024-03-23T12:31:40;10.73;;;8.73;;
62610;SDS011;48683;48.084;17.272;2024-03-23T12:34:05;10.33;;;9.10;;
62610;SDS011;48683;48.084;17.272;2024-03-23T12:36:31;9.83;;;8.47;;
62610;SDS011;48683;48.084;17.272;2024-03-23T12:38:56;13.03;;;9.13;;
62610;SDS011;48683;48.084;17.272;2024-03-23T12:41:21;9.63;;;8.63;;
62610;SDS011;48683;48.084;17.272;2024-03-23T12:43:46;9.50;;;8.53;;
62610;SDS011;48683;48.084;17.272;2024-03-23T12:46:11;12.07;;;7.90;;
62610;SDS011;48683;48.084;17.272;2024-03-23T12:48:37;9.80;;;7.70;;
62610;SDS011;48683;48.084;17.272;2024-03-23T12:51:02;9.97;;;8.50;;
62610;SDS011;48683;48.084;17.272;2024-03-23T12:53:27;8.93;;;7.73;;
62610;SDS011;48683;48.084;17.272;2024-03-23T12:55:52;9.33;;;6.93;;
62610;SDS011;48683;48.084;17.272;2024-03-23T12:58:17;9.37;;;7.17;;
62610;SDS011;48683;48.084;17.272;2024-03-23T13:00:43;8.23;;;7.10;;
62610;SDS011;48683;48.084;17.272;2024-03-23T13:03:09;8.17;;;7.20;;
62610;SDS011;48683;48.084;17.272;2024-03-23T13:05:38;9.75;;;6.70;;
62610;SDS011;48683;48.084;17.272;2024-03-23T13:08:03;11.07;;;7.23;;
62610;SDS011;48683;48.084;17.272;2024-03-23T13:10:29;11.37;;;7.43;;
62610;SDS011;48683;48.084;17.272;2024-03-23T13:12:54;7.60;;;6.67;;
62610;SDS011;48683;48.084;17.272;2024-03-23T13:15:19;9.47;;;6.60;;
62610;SDS011;48683;48.084;17.272;2024-03-23T13:17:45;8.00;;;7.20;;
62610;SDS011;48683;48.084;17.272;2024-03-23T13:20:10;8.20;;;6.53;;
62610;SDS011;48683;48.084;17.272;2024-03-23T13:22:40;8.10;;;7.18;;
62610;SDS011;48683;48.084;17.272;2024-03-23T13:25:05;8.47;;;6.67;;
62610;SDS011;48683;48.084;17.272;2024-03-23T13:27:30;7.40;;;6.60;;
62610;SDS011;48683;48.084;17.272;2024-03-23T13:29:55;8.80;;;7.80;;
62610;SDS011;48683;48.084;17.272;2024-03-23T13:32:21;10.57;;;7.13;;
62610;SDS011;48683;48.084;17.272;2024-03-23T13:34:46;9.93;;;7.17;;
62610;SDS011;48683;48.084;17.272;2024-03-23T13:37:15;8.27;;;6.85;;
62610;SDS011;48683;48.084;17.272;2024-03-23T13:39:40;7.90;;;6.47;;
62610;SDS011;48683;48.084;17.272;2024-03-23T13:42:06;10.00;;;7.05;;
62610;SDS011;48683;48.084;17.272;2024-03-23T13:44:34;8.70;;;7.00;;
62610;SDS011;48683;48.084;17.272;2024-03-23T13:46:59;7.10;;;6.40;;
62610;SDS011;48683;48.084;17.272;2024-03-23T13:49:25;9.20;;;6.73;;
62610;SDS011;48683;48.084;17.272;2024-03-23T13:51:51;7.60;;;6.85;;
62610;SDS011;48683;48.084;17.272;2024-03-23T13:54:16;8.83;;;6.90;;
62610;SDS011;48683;48.084;17.272;2024-03-23T13:56:41;7.07;;;5.53;;
62610;SDS011;48683;48.084;17.272;2024-03-23T13:59:07;7.97;;;5.80;;
62610;SDS011;48683;48.084;17.272;2024-03-23T14:01:32;7.07;;;5.80;;
62610;SDS011;48683;48.084;17.272;2024-03-23T14:03:57;6.70;;;5.90;;
62610;SDS011;48683;48.084;17.272;2024-03-23T14:06:22;8.23;;;6.70;;
62610;SDS011;48683;48.084;17.272;2024-03-23T14:08:49;9.47;;;6.20;;
62610;SDS011;48683;48.084;17.272;2024-03-23T14:11:14;9.48;;;6.43;;
62610;SDS011;48683;48.084;17.272;2024-03-23T14:13:39;7.00;;;6.30;;
62610;SDS011;48683;48.084;17.272;2024-03-23T14:16:05;16.83;;;4.30;;
62610;SDS011;48683;48.084;17.272;2024-03-23T14:18:30;33.03;;;3.50;;
62610;SDS011;48683;48.084;17.272;2024-03-23T14:20:56;16.27;;;2.50;;
62610;SDS011;48683;48.084;17.272;2024-03-23T14:23:23;21.48;;;2.33;;
62610;SDS011;48683;48.084;17.272;2024-03-23T14:25:48;12.40;;;1.53;;
62610;SDS011;48683;48.084;17.272;2024-03-23T14:28:14;8.80;;;1.80;;
62610;SDS011;48683;48.084;17.272;2024-03-23T14:30:40;1.57;;;0.90;;
62610;SDS011;48683;48.084;17.272;2024-03-23T14:33:05;13.43;;;1.80;;
62610;SDS011;48683;48.084;17.272;2024-03-23T14:35:30;13.87;;;2.27;;
62610;SDS011;48683;48.084;17.272;2024-03-23T14:37:57;5.20;;;1.40;;
62610;SDS011;48683;48.084;17.272;2024-03-23T14:40:23;5.13;;;1.30;;
62610;SDS011;48683;48.084;17.272;2024-03-23T14:42:48;3.77;;;1.13;;
62610;SDS011;48683;48.084;17.272;2024-03-23T14:45:13;2.73;;;0.87;;
62610;SDS011;48683;48.084;17.272;2024-03-23T14:47:40;3.00;;;1.10;;
62610;SDS011;48683;48.084;17.272;2024-03-23T14:50:07;3.78;;;0.90;;
62610;SDS011;48683;48.084;17.272;2024-03-23T14:52:33;2.00;;;0.98;;
62610;SDS011;48683;48.084;17.272;2024-03-23T14:54:58;6.20;;;1.07;;
62610;SDS011;48683;48.084;17.272;2024-03-23T14:57:23;2.53;;;0.77;;
62610;SDS011;48683;48.084;17.272;2024-03-23T14:59:49;6.03;;;0.90;;
62610;SDS011;48683;48.084;17.272;2024-03-23T15:02:14;1.83;;;0.90;;
62610;SDS011;48683;48.084;17.272;2024-03-23T15:04:39;1.43;;;0.77;;
62610;SDS011;48683;48.084;17.272;2024-03-23T15:07:08;4.15;;;1.27;;
62610;SDS011;48683;48.084;17.272;2024-03-23T15:09:33;1.93;;;1.10;;
62610;SDS011;48683;48.084;17.272;2024-03-23T15:11:58;2.33;;;1.10;;